Time;durP1;ratioP1;P1;durP2;ratioP2;P2;SDS_P1;SDS_P2;PMS_P1;PMS_P2;Temp;Humidity;BMP_temperature;BMP_pressure;BME280_temperature;BME280_humidity;BME280_pressure;Samples;Min_cycle;Max_cycle;Signal;HPM_P1;HPM_P2
2021/05/10 00:01:25;;;;;;;2.17;1.98;;;15.20;57.40;;;14.75;40.42;94376.25;4959255;28;20314;-79
2021/05/10 00:03:52;;;;;;;2.38;1.85;;;15.20;57.60;;;14.70;40.18;94376.94;4921067;29;20239;-79
2021/05/10 00:06:18;;;;;;;2.10;1.90;;;15.10;57.60;;;14.64;40.35;94377.84;4785104;29;20700;-79
2021/05/10 00:11:21;;;;;;;2.22;2.00;;;15.10;57.70;;;14.52;40.75;94383.91;5139754;27;20646;-80
2021/05/10 00:13:50;;;;;;;5.20;2.30;;;14.90;57.80;;;14.45;40.91;94391.13;5075007;28;20577;-80
2021/05/10 00:16:18;;;;;;;2.13;1.90;;;14.80;57.80;;;14.36;41.05;94380.09;5044029;28;20211;-80
2021/05/10 00:18:45;;;;;;;2.03;1.92;;;14.90;58.00;;;14.30;40.85;94378.38;5072557;28;20639;-79
2021/05/10 00:21:12;;;;;;;2.17;1.80;;;14.80;58.00;;;14.21;41.00;94370.00;5042866;28;20238;-79
2021/05/10 00:23:39;;;;;;;2.42;1.90;;;14.70;57.90;;;14.17;41.06;94375.94;5015389;28;20771;-79
2021/05/10 00:26:06;;;;;;;1.80;1.70;;;14.60;58.00;;;14.08;40.89;94370.22;4858546;29;20225;-79
2021/05/10 00:28:32;;;;;;;2.17;1.98;;;14.60;58.20;;;14.02;40.83;94365.84;4812055;29;20239;-78
2021/05/10 00:33:04;;;;;;;2.78;2.10;;;14.60;58.20;;;13.90;40.79;94382.47;5125808;27;20657;-79
2021/05/10 00:35:31;;;;;;;2.58;2.38;;;14.40;58.30;;;13.84;41.08;94377.25;5086091;28;20212;-79
2021/05/10 00:37:58;;;;;;;1.95;1.80;;;14.30;58.60;;;13.77;41.04;94374.75;5113633;27;20374;-80
2021/05/10 00:40:29;;;;;;;3.63;2.05;;;14.30;58.60;;;13.68;41.36;94368.16;5129066;27;20203;-79
2021/05/10 00:42:56;;;;;;;2.88;1.92;;;14.20;58.60;;;13.63;41.55;94358.28;5086912;28;20279;-79
2021/05/10 00:45:23;;;;;;;3.17;2.00;;;14.20;58.60;;;13.58;41.39;94361.59;4974601;28;20205;-79
2021/05/10 00:47:50;;;;;;;2.47;1.80;;;14.10;58.40;;;13.54;41.77;94370.19;4783425;29;20241;-79
2021/05/10 00:50:18;;;;;;;3.58;2.10;;;14.10;58.40;;;13.49;41.64;94368.22;4698471;30;20240;-79
2021/05/10 00:54:14;;;;;;;3.22;2.10;;;14.10;58.40;;;13.36;41.87;94369.16;5122342;27;20669;-79
2021/05/10 00:56:40;;;;;;;4.22;2.20;;;13.90;58.20;;;13.33;41.88;94377.53;5067822;28;20583;-79
2021/05/10 00:59:07;;;;;;;2.17;1.98;;;13.90;58.20;;;13.26;41.94;94372.31;5050160;28;21532;-79
2021/05/10 01:01:34;;;;;;;2.45;1.92;;;13.80;58.50;;;13.23;42.07;94379.84;5042189;28;20211;-79
2021/05/10 01:04:00;;;;;;;3.22;2.15;;;13.70;58.60;;;13.18;42.11;94372.63;4992586;28;20689;-79
2021/05/10 01:06:27;;;;;;;3.75;2.30;;;13.70;58.80;;;13.14;42.29;94374.09;5005808;28;20206;-79
2021/05/10 01:08:53;;;;;;;2.40;2.20;;;13.60;58.90;;;13.10;42.25;94372.94;4954869;28;20226;-80
2021/05/10 01:11:20;;;;;;;3.60;2.50;;;13.60;59.00;;;13.04;42.42;94373.81;4884503;28;20667;-78
2021/05/10 01:16:25;;;;;;;3.83;2.33;;;13.60;59.10;;;12.95;42.46;94374.09;5150194;27;20638;-78
2021/05/10 01:18:53;;;;;;;2.20;2.00;;;13.40;59.40;;;12.90;42.60;94376.59;5111386;27;20355;-78
2021/05/10 01:21:21;;;;;;;2.53;2.30;;;13.40;59.50;;;12.87;42.78;94381.50;5109570;28;20251;-79
2021/05/10 01:23:48;;;;;;;2.30;2.10;;;13.30;60.60;;;12.82;42.61;94382.16;5078747;28;20223;-79
2021/05/10 01:26:15;;;;;;;3.13;2.17;;;13.40;59.70;;;12.78;42.65;94373.88;5058566;28;20623;-79
2021/05/10 01:28:42;;;;;;;2.50;2.30;;;13.30;59.70;;;12.72;42.68;94368.69;5046651;28;20290;-79
2021/05/10 01:31:09;;;;;;;2.25;2.05;;;13.20;59.80;;;12.69;42.75;94369.91;4958492;28;20301;-80
2021/05/10 01:33:36;;;;;;;3.35;2.15;;;13.20;59.80;;;12.65;42.77;94369.56;4877818;29;20250;-80
2021/05/10 01:38:39;;;;;;;3.53;2.20;;;13.10;59.70;;;12.58;43.17;94365.38;5126291;27;20606;-79
2021/05/10 01:41:05;;;;;;;2.45;2.10;;;13.00;59.90;;;12.57;43.06;94371.66;5084220;28;20346;-79
2021/05/10 01:43:32;;;;;;;4.18;2.15;;;13.00;60.00;;;12.52;42.95;94366.25;5051766;28;20779;-79
2021/05/10 01:45:59;;;;;;;2.40;1.85;;;13.00;60.00;;;12.49;42.96;94359.59;5047401;28;20207;-79
2021/05/10 01:48:25;;;;;;;2.40;2.20;;;12.90;60.00;;;12.44;43.02;94360.25;5007511;28;20648;-79
2021/05/10 01:50:52;;;;;;;2.35;2.13;;;12.90;60.00;;;12.43;43.38;94355.22;4956453;28;20203;-79
2021/05/10 01:53:19;;;;;;;4.07;2.08;;;12.90;60.00;;;12.37;43.18;94351.63;4891027;29;20281;-79
2021/05/10 01:55:45;;;;;;;2.40;1.88;;;12.80;60.00;;;12.37;43.32;94353.47;4738221;29;20219;-78
2021/05/10 02:00:48;;;;;;;2.42;1.90;;;12.80;60.10;;;12.30;43.71;94359.59;5150411;27;20375;-80
2021/05/10 02:03:17;;;;;;;2.20;1.92;;;12.80;60.30;;;12.26;43.37;94354.97;5100587;28;20232;-79
2021/05/10 02:05:46;;;;;;;3.00;1.70;;;12.80;60.30;;;12.21;43.19;94360.06;5044508;28;20207;-78
2021/05/10 02:08:14;;;;;;;2.95;1.77;;;12.70;60.20;;;12.16;43.25;94368.59;5002144;28;20808;-79
2021/05/10 02:10:44;;;;;;;2.25;1.60;;;12.60;60.10;;;12.13;43.37;94367.22;5035659;28;20261;-79
2021/05/10 02:13:20;;;;;;;2.38;2.17;;;12.70;60.30;;;12.10;43.37;94361.56;5078476;28;20642;-79
2021/05/10 02:15:59;;;;;;;3.00;1.90;;;12.60;60.10;;;12.04;43.29;94359.81;5024597;28;20197;-79
2021/05/10 02:18:57;;;;;;;2.17;1.88;;;12.50;60.60;;;12.00;43.59;94359.44;5126106;27;20591;-79
2021/05/10 02:21:29;;;;;;;2.38;2.03;;;12.50;60.20;;;11.95;43.34;94365.28;5078423;28;20216;-80
2021/05/10 02:23:57;;;;;;;3.17;2.30;;;12.50;60.50;;;11.90;43.31;94354.63;5036270;28;20242;-79
2021/05/10 02:26:24;;;;;;;2.55;2.20;;;12.40;60.20;;;11.90;43.58;94349.38;5059311;28;20605;-78
2021/05/10 02:28:50;;;;;;;2.50;2.00;;;12.40;60.10;;;11.88;43.68;94354.03;5079523;28;20283;-80
2021/05/10 02:31:16;;;;;;;2.95;2.10;;;12.40;60.30;;;11.85;43.58;94352.63;5030135;28;20267;-80
2021/05/10 02:33:43;;;;;;;2.47;2.20;;;12.30;60.20;;;11.83;43.75;94365.16;4990814;28;20229;-80
2021/05/10 02:36:10;;;;;;;2.60;2.22;;;12.30;60.30;;;11.81;43.60;94354.06;4821377;29;20216;-81
2021/05/10 02:40:38;;;;;;;2.92;1.98;;;12.30;60.30;;;11.76;43.54;94353.09;5150047;27;20638;-79
2021/05/10 02:43:04;;;;;;;4.68;2.10;;;12.20;60.10;;;11.73;43.36;94356.13;5111731;27;20223;-80
2021/05/10 02:45:31;;;;;;;3.10;2.60;;;12.20;60.20;;;11.74;43.59;94345.41;5078272;28;20704;-79
2021/05/10 02:47:58;;;;;;;3.08;2.10;;;12.20;61.10;;;11.72;43.76;94347.47;5025967;28;20231;-80
2021/05/10 02:50:26;;;;;;;3.55;2.03;;;12.20;60.30;;;11.71;43.96;94347.69;4939840;28;20562;-79
2021/05/10 02:52:54;;;;;;;3.65;1.95;;;12.20;60.40;;;11.71;43.66;94347.69;4823047;29;20232;-79
2021/05/10 02:55:21;;;;;;;2.60;2.25;;;12.20;60.40;;;11.69;43.82;94350.50;4755739;30;20313;-79
2021/05/10 02:57:49;;;;;;;2.72;2.10;;;12.10;60.40;;;11.69;43.91;94361.00;4651651;30;20343;-80
2021/05/10 03:02:20;;;;;;;3.25;2.20;;;12.10;60.60;;;11.64;43.51;94361.63;5146326;27;20652;-79
2021/05/10 03:04:47;;;;;;;2.63;2.20;;;12.10;60.30;;;11.66;43.90;94367.50;5082592;28;20679;-79
2021/05/10 03:07:14;;;;;;;2.15;1.98;;;12.10;60.50;;;11.67;43.61;94366.47;5104972;27;20563;-79
2021/05/10 03:09:40;;;;;;;3.08;2.17;;;12.10;60.50;;;11.66;43.64;94367.50;5078366;28;20203;-79
2021/05/10 03:12:08;;;;;;;2.40;2.10;;;12.00;60.40;;;11.66;43.96;94361.44;5057487;28;20212;-79
2021/05/10 03:14:34;;;;;;;2.00;1.80;;;12.10;60.70;;;11.65;43.64;94359.84;4983998;28;20718;-79
2021/05/10 03:17:01;;;;;;;2.08;1.77;;;12.00;60.50;;;11.64;43.79;94359.00;4951417;28;20703;-79
2021/05/10 03:19:28;;;;;;;3.00;2.00;;;12.00;60.50;;;11.64;44.06;94366.09;4848062;29;20229;-78
2021/05/10 03:24:14;;;;;;;3.08;2.25;;;12.10;60.60;;;11.59;43.72;94361.47;5121857;27;20320;-79
2021/05/10 03:26:41;;;;;;;2.22;2.03;;;12.00;60.60;;;11.60;43.74;94370.97;5089644;28;20205;-80
2021/05/10 03:29:08;;;;;;;2.15;1.88;;;12.00;60.70;;;11.60;44.21;94375.44;5104273;28;20217;-78
2021/05/10 03:31:36;;;;;;;3.58;2.00;;;12.00;60.80;;;11.62;43.90;94381.25;5038783;28;20242;-79
2021/05/10 03:34:04;;;;;;;3.95;2.28;;;12.00;60.80;;;11.62;44.08;94381.25;5013438;28;20328;-79
2021/05/10 03:36:31;;;;;;;2.78;2.08;;;12.00;60.90;;;11.61;44.04;94382.28;4946714;28;20204;-79
2021/05/10 03:39:00;;;;;;;2.50;1.98;;;12.00;60.80;;;11.62;44.06;94389.97;4863686;29;20578;-78
2021/05/10 03:41:27;;;;;;;2.20;2.00;;;12.00;60.80;;;11.60;44.12;94384.09;4685403;29;20253;-79
2021/05/10 03:45:41;;;;;;;5.85;3.50;;;12.00;60.90;;;11.60;44.15;94388.56;5145187;27;20568;-78
2021/05/10 03:48:08;;;;;;;5.70;3.65;;;12.00;60.80;;;11.60;44.12;94391.97;5095856;28;20222;-79
2021/05/10 03:50:34;;;;;;;5.32;3.22;;;12.00;61.00;;;11.60;44.21;94391.19;5065369;28;20210;-78
2021/05/10 03:53:00;;;;;;;3.47;2.90;;;12.00;61.00;;;11.63;44.13;94401.25;5040237;28;20236;-79
2021/05/10 03:55:27;;;;;;;4.03;2.72;;;11.90;60.90;;;11.63;44.34;94398.63;5010252;28;20201;-79
2021/05/10 03:57:54;;;;;;;4.13;2.90;;;12.00;61.00;;;11.66;44.28;94396.38;4956682;28;20706;-79
2021/05/10 04:00:20;;;;;;;3.72;3.22;;;12.00;61.10;;;11.72;44.00;94396.56;4885613;29;20280;-79
2021/05/10 04:02:47;;;;;;;13.30;7.85;;;12.00;61.10;;;11.73;44.59;94392.91;4775972;29;20243;-79
2021/05/10 04:13:43;;;;;;;4.03;3.10;;;12.10;61.30;;;11.94;44.46;94399.69;5013465;28;20625;-80
2021/05/10 04:16:10;;;;;;;3.38;2.80;;;12.20;61.50;;;12.00;44.19;94401.47;5020257;28;20215;-80
2021/05/10 04:18:37;;;;;;;3.97;2.60;;;12.20;61.40;;;12.05;44.20;94401.63;4995879;28;20293;-81
2021/05/10 04:21:05;;;;;;;3.40;2.75;;;12.30;61.50;;;12.11;44.40;94408.66;4998679;28;20225;-80
2021/05/10 04:23:31;;;;;;;3.75;2.70;;;12.30;61.50;;;12.14;44.38;94402.97;4889586;29;21351;-80
2021/05/10 04:26:09;;;;;;;4.22;3.47;;;12.30;61.50;;;12.22;44.49;94416.88;5150572;27;20627;-80
2021/05/10 04:28:36;;;;;;;3.70;3.30;;;12.30;61.50;;;12.26;44.46;94418.06;5084140;28;20226;-80
2021/05/10 04:31:02;;;;;;;3.50;2.80;;;12.40;61.50;;;12.28;44.21;94416.84;5109631;28;20281;-79
2021/05/10 04:33:32;;;;;;;2.97;2.53;;;12.40;61.50;;;12.30;44.21;94406.91;5083400;28;20226;-79
2021/05/10 04:36:00;;;;;;;3.42;2.83;;;12.50;61.70;;;12.30;44.49;94409.53;5018634;28;20248;-83
2021/05/10 04:38:28;;;;;;;7.03;4.00;;;12.50;61.50;;;12.30;44.52;94406.91;4955315;28;20231;-80
2021/05/10 04:40:55;;;;;;;4.45;2.70;;;12.60;61.50;;;12.28;43.94;94406.31;4813666;29;20562;-79
2021/05/10 04:43:25;;;;;;;3.20;2.80;;;12.60;61.50;;;12.25;44.34;94393.59;4665229;30;20267;-79
2021/05/10 04:48:06;;;;;;;3.05;2.78;;;12.60;61.50;;;12.21;44.23;94399.50;5136564;27;20637;-78
2021/05/10 04:50:32;;;;;;;3.30;3.00;;;12.60;61.40;;;12.17;44.44;94399.13;5091455;28;20258;-80
2021/05/10 04:52:59;;;;;;;4.88;3.10;;;12.60;61.40;;;12.17;44.63;94396.50;5111045;28;20217;-79
2021/05/10 04:55:26;;;;;;;6.38;5.22;;;12.50;61.40;;;12.16;44.28;94402.78;5067026;28;20585;-79
2021/05/10 04:57:53;;;;;;;6.05;4.47;;;12.50;61.40;;;12.15;44.42;94403.78;5038888;28;20325;-80
2021/05/10 05:00:20;;;;;;;4.85;3.50;;;12.50;61.40;;;12.16;44.67;94406.19;4975641;28;20222;-80
2021/05/10 05:02:47;;;;;;;3.10;2.75;;;12.50;61.50;;;12.16;44.51;94408.03;4943685;28;20224;-80
2021/05/10 05:05:14;;;;;;;4.28;3.13;;;12.50;61.50;;;12.16;44.44;94416.72;4807043;29;20216;-79
2021/05/10 05:10:17;;;;;;;8.48;4.53;;;12.50;61.70;;;12.22;44.74;94419.50;5149669;27;20412;-80
2021/05/10 05:12:49;;;;;;;5.20;3.80;;;12.40;61.80;;;12.23;44.73;94418.47;5113729;28;20594;-79
2021/05/10 05:15:18;;;;;;;4.53;3.58;;;12.50;62.10;;;12.26;44.75;94423.34;5049286;28;20264;-80
2021/05/10 05:17:45;;;;;;;5.50;3.30;;;12.50;62.00;;;12.27;44.94;94425.75;5050930;28;20303;-79
2021/05/10 05:20:12;;;;;;;5.65;3.80;;;12.60;61.90;;;12.29;45.02;94423.72;5010202;28;20297;-80
2021/05/10 05:22:39;;;;;;;4.55;4.05;;;12.50;61.90;;;12.29;44.82;94415.81;4899449;29;20344;-80
2021/05/10 05:25:07;;;;;;;4.40;3.88;;;12.50;62.00;;;12.37;45.06;94413.94;4872692;29;20229;-80
2021/05/10 05:27:35;;;;;;;8.75;5.18;;;12.60;62.20;;;12.44;44.97;94417.31;4744625;29;20275;-79
2021/05/10 05:31:59;;;;;;;6.55;5.03;;;12.60;62.20;;;12.54;45.06;94430.78;5149262;27;20775;-80
2021/05/10 05:34:26;;;;;;;9.70;7.07;;;12.70;62.10;;;12.62;45.21;94432.31;5075004;28;20264;-78
2021/05/10 05:36:53;;;;;;;7.40;5.82;;;12.70;62.20;;;12.70;45.15;94436.53;5063920;28;20277;-79
2021/05/10 05:39:20;;;;;;;7.88;6.43;;;12.80;62.60;;;12.75;44.99;94436.66;5028639;28;20647;-79
2021/05/10 05:41:50;;;;;;;11.13;8.90;;;12.80;62.20;;;12.80;44.88;94435.00;4964950;28;20209;-79
2021/05/10 05:44:17;;;;;;;9.35;7.13;;;12.90;62.40;;;12.88;45.25;94430.50;4888953;29;20688;-79
2021/05/10 05:46:48;;;;;;;8.50;5.43;;;12.90;62.30;;;12.94;45.00;94433.03;4812122;29;20223;-80
2021/05/10 05:49:16;;;;;;;7.80;6.07;;;13.10;62.50;;;13.00;44.43;94436.63;4658773;30;20318;-80
2021/05/10 05:53:40;;;;;;;7.88;6.70;;;13.00;62.30;;;13.18;44.83;94437.66;5112994;27;20573;-80
2021/05/10 05:56:06;;;;;;;7.65;6.07;;;13.30;62.50;;;13.29;44.95;94442.19;5103789;28;20192;-80
2021/05/10 05:58:33;;;;;;;6.97;5.30;;;13.30;62.50;;;13.36;45.10;94450.03;5089105;28;20241;-81
2021/05/10 06:01:02;;;;;;;7.32;5.65;;;13.30;62.40;;;13.47;45.00;94464.31;5102892;27;20204;-81
2021/05/10 06:03:29;;;;;;;8.20;5.93;;;13.50;62.60;;;13.56;44.68;94461.16;5093986;28;20223;-82
2021/05/10 06:05:56;;;;;;;5.95;4.82;;;13.60;62.70;;;13.66;45.02;94457.19;5017192;28;20268;-81
2021/05/10 06:08:23;;;;;;;5.38;4.18;;;13.70;62.60;;;13.74;44.79;94470.88;4901945;28;20314;-80
2021/05/10 06:10:50;;;;;;;4.82;3.50;;;13.70;62.50;;;13.89;44.90;94483.66;4766609;29;21741;-80
2021/05/10 06:13:28;;;;;;;5.57;4.18;;;13.90;62.60;;;13.97;44.82;94482.53;5132183;27;20323;-81
2021/05/10 06:15:54;;;;;;;5.75;3.95;;;13.90;62.60;;;14.09;44.75;94485.22;5069538;28;20216;-80
2021/05/10 06:18:21;;;;;;;4.95;3.53;;;14.00;62.60;;;14.20;44.79;94478.38;5082980;28;20240;-81
2021/05/10 06:20:47;;;;;;;3.92;3.08;;;14.10;62.60;;;14.30;44.35;94475.19;5076424;28;20774;-81
2021/05/10 06:23:14;;;;;;;4.20;3.10;;;14.10;62.40;;;14.35;44.72;94468.19;5018361;28;20571;-80
2021/05/10 06:25:40;;;;;;;3.55;3.20;;;14.20;62.50;;;14.43;44.58;94474.19;4843454;29;20236;-80
2021/05/10 06:28:07;;;;;;;3.75;3.10;;;14.30;62.30;;;14.57;44.57;94481.69;4703748;30;20271;-81
2021/05/10 06:30:33;;;;;;;6.40;2.72;;;14.40;62.30;;;14.69;44.37;94483.56;4554752;30;20240;-81
2021/05/10 06:33:10;;;;;;;3.20;2.78;;;14.60;62.40;;;14.80;44.29;94489.88;5133570;27;20324;-80
2021/05/10 06:35:37;;;;;;;2.75;2.50;;;14.60;62.30;;;14.88;44.14;94485.06;5102044;28;20721;-81
2021/05/10 06:38:04;;;;;;;2.65;2.42;;;14.80;62.30;;;15.01;44.22;94499.88;5076778;28;20237;-80
2021/05/10 06:40:30;;;;;;;3.97;2.78;;;14.80;62.40;;;15.10;43.97;94497.69;5060655;28;20589;-81
2021/05/10 06:42:57;;;;;;;4.50;2.80;;;14.90;62.10;;;15.23;43.82;94496.66;5012988;28;20714;-81
2021/05/10 06:45:23;;;;;;;2.72;2.47;;;15.00;62.10;;;15.33;44.02;94501.34;4940668;28;20219;-80
2021/05/10 06:47:51;;;;;;;2.80;2.33;;;15.10;62.20;;;15.43;43.56;94503.41;4876412;29;20239;-82
2021/05/10 06:50:17;;;;;;;3.17;2.75;;;15.20;62.10;;;15.53;43.63;94501.78;4770237;29;20248;-80
2021/05/10 06:52:55;;;;;;;2.85;2.55;;;15.30;62.10;;;15.61;44.15;94489.25;5119787;27;21087;-80
2021/05/10 06:55:21;;;;;;;2.75;2.40;;;15.40;62.10;;;15.75;43.41;94492.44;5063581;28;20209;-81
2021/05/10 06:57:48;;;;;;;2.55;2.20;;;15.50;62.20;;;15.88;43.70;94496.66;5053352;28;20691;-80
2021/05/10 07:00:15;;;;;;;3.20;2.80;;;15.70;62.20;;;15.98;43.46;94488.94;5026518;28;20215;-82
2021/05/10 07:02:42;;;;;;;5.10;2.50;;;15.70;62.00;;;16.07;43.84;94484.06;5016235;28;20259;-82
2021/05/10 07:05:09;;;;;;;2.67;2.40;;;15.80;62.10;;;16.22;43.05;94481.72;4953283;28;20202;-82
2021/05/10 07:07:36;;;;;;;3.30;3.00;;;15.90;62.10;;;16.34;43.64;94486.91;4831145;29;20253;-81
2021/05/10 07:10:05;;;;;;;2.90;2.38;;;16.00;62.30;;;16.45;43.44;94490.56;4680387;29;20698;-82
2021/05/10 07:14:51;;;;;;;3.50;2.60;;;16.10;62.20;;;16.68;43.49;94488.81;5140959;27;20346;-82
2021/05/10 07:17:18;;;;;;;4.95;2.67;;;16.30;62.00;;;16.79;43.49;94490.56;5086296;28;20227;-82
2021/05/10 07:19:44;;;;;;;4.13;2.55;;;16.50;62.00;;;16.92;43.63;94482.34;5077017;28;20842;-83
2021/05/10 07:22:11;;;;;;;3.88;2.83;;;16.60;62.10;;;17.04;43.44;94486.72;5102790;28;20225;-82
2021/05/10 07:24:37;;;;;;;4.95;2.70;;;16.70;63.00;;;17.19;43.21;94488.81;5003260;28;20208;-81
2021/05/10 07:27:04;;;;;;;2.90;2.53;;;16.90;62.20;;;17.29;43.19;94489.75;4905219;28;20225;-82
2021/05/10 07:29:30;;;;;;;3.70;2.50;;;16.90;61.90;;;17.42;42.88;94485.94;4812103;29;20275;-83
2021/05/10 07:31:57;;;;;;;2.75;2.40;;;17.00;61.90;;;17.56;42.92;94485.59;4758246;29;20228;-84
2021/05/10 07:34:45;;;;;;;4.20;2.50;;;17.20;61.90;;;17.68;42.80;94490.78;5138321;27;20571;-83
2021/05/10 07:37:11;;;;;;;5.20;2.80;;;17.30;61.80;;;17.84;43.13;94483.81;5097520;27;20220;-83
2021/05/10 07:39:38;;;;;;;2.65;2.42;;;17.40;61.70;;;17.96;43.04;94487.16;5080984;28;20217;-83
2021/05/10 07:42:05;;;;;;;2.58;2.22;;;17.50;61.70;;;18.10;42.32;94489.41;5091611;28;20292;-80
2021/05/10 07:44:31;;;;;;;5.15;2.70;;;17.70;61.70;;;18.20;42.46;94479.72;4963579;28;20213;-80
2021/05/10 07:46:58;;;;;;;3.08;2.60;;;17.80;61.80;;;18.35;42.60;94488.88;4852475;29;20217;-80
2021/05/10 07:49:26;;;;;;;2.65;2.30;;;17.90;61.90;;;18.48;42.25;94495.63;4742422;29;20499;-81
2021/05/10 07:51:54;;;;;;;4.07;2.55;;;18.00;61.90;;;18.60;42.13;94490.16;4681337;30;20359;-81
2021/05/10 07:56:04;;;;;;;3.17;2.33;;;18.10;62.00;;;18.75;41.91;94487.63;5134851;27;20574;-81
2021/05/10 07:58:31;;;;;;;3.13;2.28;;;18.30;61.90;;;18.85;42.01;94493.03;5070054;28;20240;-81
2021/05/10 08:01:02;;;;;;;3.92;2.35;;;18.40;61.70;;;18.94;41.96;94495.25;5050330;28;20229;-82
2021/05/10 08:03:29;;;;;;;4.82;2.60;;;18.50;61.60;;;19.01;42.22;94493.19;5017945;28;20251;-82
2021/05/10 08:05:56;;;;;;;2.90;2.28;;;18.60;61.70;;;19.11;41.78;94498.53;5036083;28;20211;-81
2021/05/10 08:08:24;;;;;;;4.20;2.90;;;18.60;61.70;;;19.16;42.31;94482.66;5004039;28;20286;-86
2021/05/10 08:10:51;;;;;;;3.50;2.83;;;18.70;61.80;;;19.27;41.94;94482.69;4906463;28;20266;-82
2021/05/10 08:13:18;;;;;;;2.97;2.58;;;18.90;62.00;;;19.33;42.25;94476.34;4721154;29;20597;-81
2021/05/10 08:15:51;;;;;;;2.88;2.42;;;18.90;61.80;;;19.44;42.21;94482.53;5143621;27;20329;-82
2021/05/10 08:18:17;;;;;;;3.38;2.45;;;19.00;61.80;;;19.50;41.73;94474.31;5073188;28;20631;-81
2021/05/10 08:20:45;;;;;;;2.78;2.53;;;19.10;61.70;;;19.62;42.31;94489.28;5049383;28;20257;-81
2021/05/10 08:23:13;;;;;;;3.17;2.40;;;19.20;61.70;;;19.72;42.20;94483.19;5019905;28;20248;-82
2021/05/10 08:25:44;;;;;;;2.90;2.63;;;19.30;61.80;;;19.80;41.98;94477.38;4966813;28;20591;-80
2021/05/10 08:28:11;;;;;;;4.22;2.55;;;19.30;61.50;;;19.91;41.53;94478.22;4918234;28;20236;-83
2021/05/10 08:30:38;;;;;;;4.07;2.35;;;19.40;61.60;;;20.02;41.55;94492.38;4845787;29;20297;-81
2021/05/10 08:33:05;;;;;;;3.70;2.53;;;19.50;61.70;;;20.13;41.96;94499.34;4604114;30;20317;-82
2021/05/10 08:36:50;;;;;;;2.13;1.92;;;19.60;61.40;;;20.30;41.71;94507.13;5150255;27;20556;-82
2021/05/10 08:39:17;;;;;;;2.88;2.20;;;19.80;61.50;;;20.44;41.36;94512.72;5084660;28;20205;-82
2021/05/10 08:41:44;;;;;;;4.10;2.40;;;19.90;61.60;;;20.58;41.22;94494.34;5057450;28;20656;-83
2021/05/10 08:44:11;;;;;;;3.33;2.53;;;20.00;61.50;;;20.69;41.32;94490.66;5067310;28;20225;-83
2021/05/10 08:46:41;;;;;;;2.60;2.40;;;20.10;61.40;;;20.85;41.31;94504.00;5010749;28;20243;-82
2021/05/10 08:49:09;;;;;;;2.30;2.10;;;20.20;61.10;;;20.95;40.41;94501.34;4967709;28;20289;-81
2021/05/10 08:51:39;;;;;;;2.40;2.20;;;20.40;60.90;;;21.04;40.40;94496.25;4922103;28;20299;-82
2021/05/10 08:54:25;;;;;;;2.33;2.03;;;20.50;60.80;;;21.15;40.37;94494.41;4860689;29;20233;-82
2021/05/10 08:57:02;;;;;;;4.95;2.20;;;20.60;61.10;;;21.24;40.36;94490.91;5148465;27;20718;-82
2021/05/10 08:59:29;;;;;;;3.05;2.30;;;20.70;60.90;;;21.32;40.68;94481.56;5105049;28;20546;-82
2021/05/10 09:01:59;;;;;;;3.40;2.60;;;20.80;60.70;;;21.44;40.10;94483.94;5083904;28;20234;-82
2021/05/10 09:04:37;;;;;;;3.65;2.67;;;20.90;60.50;;;21.55;40.20;94484.72;5040620;28;20555;-82
2021/05/10 09:07:23;;;;;;;3.42;2.40;;;21.00;60.30;;;21.65;40.50;94484.69;4933059;28;20567;-81
2021/05/10 09:10:01;;;;;;;4.55;2.47;;;21.10;60.60;;;21.78;39.51;94482.53;4776501;29;20207;-81
2021/05/10 09:12:48;;;;;;;2.55;2.35;;;21.20;60.30;;;21.87;39.52;94479.03;4639704;30;20259;-82
2021/05/10 09:16:15;;;;;;;3.30;2.47;;;21.30;60.20;;;21.98;39.79;94470.97;5133310;27;20643;-82
2021/05/10 09:18:57;;;;;;;5.47;2.38;;;21.50;60.10;;;22.08;39.41;94476.22;5088937;28;20270;-82
2021/05/10 09:21:29;;;;;;;3.03;2.67;;;21.50;61.10;;;22.16;39.34;94466.88;5053666;28;20199;-82
2021/05/10 09:24:24;;;;;;;3.25;2.60;;;21.60;60.20;;;22.25;39.89;94467.88;5034104;28;20239;-82
2021/05/10 09:27:36;;;;;;;2.97;2.40;;;21.70;60.20;;;22.34;39.49;94466.22;4948578;28;20217;-82
2021/05/10 09:30:18;;;;;;;3.72;2.60;;;21.80;60.00;;;22.46;39.15;94463.22;4791803;29;20301;-85
2021/05/10 09:32:55;;;;;;;2.60;2.40;;;21.90;59.70;;;22.54;39.04;94464.50;4676308;30;20241;-82
2021/05/10 09:38:09;;;;;;;2.75;2.55;;;22.10;59.50;;;22.71;38.77;94475.59;5139099;27;20567;-81
2021/05/10 09:40:50;;;;;;;3.72;2.13;;;22.10;59.40;;;22.81;38.89;94481.94;5073577;28;20200;-81
2021/05/10 09:43:33;;;;;;;3.50;2.15;;;22.30;59.40;;;22.91;38.63;94475.72;5042033;28;20232;-82
2021/05/10 09:46:07;;;;;;;2.80;2.15;;;22.30;59.30;;;23.01;38.93;94481.78;5013464;28;20222;-81
2021/05/10 09:48:37;;;;;;;3.92;2.80;;;22.40;59.50;;;23.10;38.62;94473.94;5011704;28;20235;-82
2021/05/10 09:51:11;;;;;;;2.85;2.50;;;22.50;59.10;;;23.22;38.60;94483.50;4970265;28;20217;-82
2021/05/10 09:53:58;;;;;;;2.85;2.30;;;22.60;59.20;;;23.29;38.24;94478.59;4877795;28;20237;-83
2021/05/10 09:59:02;;;;;;;4.15;2.20;;;22.70;58.90;;;23.50;37.95;94484.56;5132668;27;20395;-83
2021/05/10 10:01:48;;;;;;;2.10;1.90;;;22.90;58.80;;;23.59;37.76;94479.38;5066762;28;20288;-83
2021/05/10 10:04:18;;;;;;;4.28;2.70;;;23.00;58.90;;;23.69;37.84;94479.25;5043580;28;20233;-82
2021/05/10 10:06:47;;;;;;;4.13;2.47;;;23.00;59.00;;;23.78;37.80;94476.78;5054306;28;20217;-82
2021/05/10 10:09:14;;;;;;;4.20;2.47;;;23.10;58.50;;;23.89;37.88;94485.44;4936957;28;20239;-83
2021/05/10 10:11:40;;;;;;;3.83;2.50;;;23.20;58.70;;;24.00;37.86;94478.94;4891857;29;20205;-81
2021/05/10 10:14:09;;;;;;;2.42;2.15;;;23.30;58.70;;;24.11;37.85;94482.28;4853984;29;20231;-83
2021/05/10 10:16:53;;;;;;;3.15;2.20;;;23.40;58.60;;;24.23;37.48;94493.38;5144648;27;20650;-83
2021/05/10 10:19:20;;;;;;;2.42;1.90;;;23.50;59.70;;;24.30;37.50;94485.78;5070071;28;20597;-84
2021/05/10 10:21:47;;;;;;;2.83;2.40;;;23.60;58.50;;;24.38;37.25;94476.28;5090998;28;20283;-83
2021/05/10 10:24:15;;;;;;;3.97;2.30;;;23.70;58.00;;;24.50;37.32;94494.59;5041500;28;20259;-83
2021/05/10 10:27:02;;;;;;;2.88;2.50;;;23.80;58.10;;;24.60;37.12;94499.81;4983154;28;20656;-81
2021/05/10 10:29:31;;;;;;;2.50;2.03;;;23.90;58.00;;;24.69;36.76;94488.47;4923327;29;20220;-82
2021/05/10 10:31:59;;;;;;;2.60;2.25;;;24.00;57.60;;;24.76;36.74;94492.34;4851407;29;20211;-85
2021/05/10 10:34:36;;;;;;;3.10;2.28;;;24.10;57.80;;;24.84;37.06;94482.88;4711053;29;20286;-83
2021/05/10 10:37:20;;;;;;;2.22;2.03;;;24.20;57.70;;;24.96;36.55;94489.66;5141143;27;20315;-83
2021/05/10 10:39:53;;;;;;;2.80;2.20;;;24.30;57.60;;;25.05;36.78;94475.28;5082061;28;20224;-83
2021/05/10 10:42:31;;;;;;;2.67;2.30;;;24.40;57.40;;;25.12;36.74;94474.91;5049212;28;20230;-82
2021/05/10 10:45:02;;;;;;;3.97;2.45;;;24.50;57.70;;;25.20;36.23;94460.78;5022127;28;20260;-83
2021/05/10 10:47:44;;;;;;;3.17;1.90;;;24.50;58.20;;;25.35;35.80;94477.72;4993101;28;20246;-83
2021/05/10 10:50:13;;;;;;;2.28;1.95;;;24.60;56.70;;;25.42;35.53;94481.63;4915537;28;20457;-82
2021/05/10 10:53:08;;;;;;;2.90;2.10;;;24.70;56.40;;;25.50;35.50;94465.91;4877499;29;20234;-82
2021/05/10 10:58:20;;;;;;;1.95;1.75;;;24.90;56.90;;;25.73;35.25;94461.44;5138911;27;20353;-83
2021/05/10 11:00:56;;;;;;;2.17;1.70;;;25.00;56.30;;;25.88;35.31;94474.56;5082695;28;20663;-82
2021/05/10 11:03:24;;;;;;;4.57;2.03;;;25.20;56.10;;;26.00;35.01;94468.69;5118180;28;20314;-82
2021/05/10 11:05:50;;;;;;;2.55;2.22;;;25.30;56.00;;;26.13;35.20;94461.72;5124031;27;20555;-82
2021/05/10 11:08:17;;;;;;;4.68;2.13;;;25.30;56.10;;;26.19;34.56;94449.75;5083968;28;20238;-83
2021/05/10 11:10:54;;;;;;;3.60;2.05;;;25.50;55.50;;;26.31;34.58;94451.94;5007856;28;20217;-82
2021/05/10 11:13:29;;;;;;;3.00;2.20;;;25.60;55.40;;;26.37;34.72;94448.03;4933794;28;20234;-83
2021/05/10 11:18:53;;;;;;;3.70;2.05;;;25.70;55.10;;;26.45;34.26;94451.91;5129583;27;20669;-82
2021/05/10 11:21:23;;;;;;;2.67;2.20;;;25.80;54.70;;;26.48;34.46;94451.28;5087930;28;20206;-83
2021/05/10 11:24:02;;;;;;;4.80;2.10;;;25.80;54.60;;;26.49;34.58;94455.56;5091747;28;20234;-82
2021/05/10 11:26:53;;;;;;;3.25;2.10;;;25.90;54.90;;;26.55;34.26;94461.63;5073567;28;20217;-82